sensor_id;sensor_type;location;lat;lon;timestamp;pressure;altitude;pressure_sealevel;temperature;humidity
22662;BME280;11497;52.222;21.246;2024-02-04T00:01:07;99716.25;;;5.12;78.10
22662;BME280;11497;52.222;21.246;2024-02-04T00:03:54;99723.91;;;5.12;76.49
22662;BME280;11497;52.222;21.246;2024-02-04T00:06:23;99720.56;;;5.15;76.60
22662;BME280;11497;52.222;21.246;2024-02-04T00:08:50;99720.53;;;5.13;75.47
22662;BME280;11497;52.222;21.246;2024-02-04T00:11:18;99724.66;;;5.05;75.89
22662;BME280;11497;52.222;21.246;2024-02-04T00:13:46;99724.03;;;5.20;74.36
22662;BME280;11497;52.222;21.246;2024-02-04T00:16:14;99723.00;;;5.05;74.96
22662;BME280;11497;52.222;21.246;2024-02-04T00:18:42;99717.81;;;5.01;74.85
22662;BME280;11497;52.222;21.246;2024-02-04T00:21:10;99720.63;;;5.18;73.10
22662;BME280;11497;52.222;21.246;2024-02-04T00:23:37;99711.16;;;5.12;73.79
22662;BME280;11497;52.222;21.246;2024-02-04T00:26:05;99709.38;;;5.06;73.58
22662;BME280;11497;52.222;21.246;2024-02-04T00:28:33;99700.06;;;5.10;73.04
22662;BME280;11497;52.222;21.246;2024-02-04T00:31:01;99699.94;;;4.99;73.38
22662;BME280;11497;52.222;21.246;2024-02-04T00:33:29;99700.78;;;5.00;73.79
22662;BME280;11497;52.222;21.246;2024-02-04T00:35:57;99690.44;;;4.91;74.03
22662;BME280;11497;52.222;21.246;2024-02-04T00:38:24;99696.31;;;4.85;74.74
22662;BME280;11497;52.222;21.246;2024-02-04T00:40:53;99688.72;;;4.89;74.70
22662;BME280;11497;52.222;21.246;2024-02-04T00:43:21;99697.88;;;4.77;74.93
22662;BME280;11497;52.222;21.246;2024-02-04T00:45:49;99696.13;;;4.74;75.29
22662;BME280;11497;52.222;21.246;2024-02-04T00:48:17;99707.25;;;4.76;75.78
22662;BME280;11497;52.222;21.246;2024-02-04T00:50:45;99709.78;;;4.78;75.23
22662;BME280;11497;52.222;21.246;2024-02-04T00:53:14;99700.47;;;4.78;75.33
22662;BME280;11497;52.222;21.246;2024-02-04T00:55:42;99701.28;;;4.77;75.62
22662;BME280;11497;52.222;21.246;2024-02-04T00:58:10;99701.22;;;4.73;75.71
22662;BME280;11497;52.222;21.246;2024-02-04T01:00:38;99705.44;;;4.70;75.82
22662;BME280;11497;52.222;21.246;2024-02-04T01:03:06;99700.44;;;4.77;76.12
22662;BME280;11497;52.222;21.246;2024-02-04T01:05:34;99704.59;;;4.72;75.93
22662;BME280;11497;52.222;21.246;2024-02-04T01:08:01;99697.78;;;4.70;76.39
22662;BME280;11497;52.222;21.246;2024-02-04T01:10:29;99704.69;;;4.78;76.06
22662;BME280;11497;52.222;21.246;2024-02-04T01:12:57;99702.06;;;4.72;76.24
22662;BME280;11497;52.222;21.246;2024-02-04T01:15:25;99712.41;;;4.82;76.17
22662;BME280;11497;52.222;21.246;2024-02-04T01:17:53;99703.91;;;4.80;75.79
22662;BME280;11497;52.222;21.246;2024-02-04T01:20:21;99718.22;;;4.72;76.63
22662;BME280;11497;52.222;21.246;2024-02-04T01:22:49;99712.19;;;4.67;76.82
22662;BME280;11497;52.222;21.246;2024-02-04T01:25:17;99714.75;;;4.68;76.90
22662;BME280;11497;52.222;21.246;2024-02-04T01:27:44;99716.44;;;4.68;76.67
22662;BME280;11497;52.222;21.246;2024-02-04T01:30:12;99723.91;;;4.57;77.66
22662;BME280;11497;52.222;21.246;2024-02-04T01:32:40;99717.00;;;4.51;77.85
22662;BME280;11497;52.222;21.246;2024-02-04T01:35:08;99717.91;;;4.54;78.41
22662;BME280;11497;52.222;21.246;2024-02-04T01:37:37;99729.94;;;4.62;77.93
22662;BME280;11497;52.222;21.246;2024-02-04T01:40:05;99720.47;;;4.55;78.15
22662;BME280;11497;52.222;21.246;2024-02-04T01:42:33;99727.69;;;4.81;77.75
22662;BME280;11497;52.222;21.246;2024-02-04T01:45:01;99725.75;;;4.64;77.56
22662;BME280;11497;52.222;21.246;2024-02-04T01:47:29;99723.16;;;4.63;77.77
22662;BME280;11497;52.222;21.246;2024-02-04T01:49:57;99717.25;;;4.65;77.71
22662;BME280;11497;52.222;21.246;2024-02-04T01:52:25;99718.09;;;4.64;78.18
22662;BME280;11497;52.222;21.246;2024-02-04T01:54:53;99718.38;;;4.83;78.47
22662;BME280;11497;52.222;21.246;2024-02-04T01:57:21;99710.75;;;4.84;78.23
22662;BME280;11497;52.222;21.246;2024-02-04T01:59:49;99699.75;;;4.87;77.99
22662;BME280;11497;52.222;21.246;2024-02-04T02:02:19;99688.63;;;4.82;78.50
22662;BME280;11497;52.222;21.246;2024-02-04T02:04:47;99679.31;;;4.85;78.04
22662;BME280;11497;52.222;21.246;2024-02-04T02:07:15;99686.19;;;4.91;78.34
22662;BME280;11497;52.222;21.246;2024-02-04T02:09:48;99683.81;;;5.00;78.18
22662;BME280;11497;52.222;21.246;2024-02-04T02:12:27;99686.38;;;5.03;78.59
22662;BME280;11497;52.222;21.246;2024-02-04T02:15:01;99690.78;;;5.14;77.94
22662;BME280;11497;52.222;21.246;2024-02-04T02:17:46;99697.50;;;5.08;78.17
22662;BME280;11497;52.222;21.246;2024-02-04T02:25:36;99681.47;;;5.17;77.81
22662;BME280;11497;52.222;21.246;2024-02-04T02:28:05;99690.75;;;5.11;77.66
22662;BME280;11497;52.222;21.246;2024-02-04T02:30:34;99688.09;;;5.04;78.27
22662;BME280;11497;52.222;21.246;2024-02-04T02:33:02;99687.28;;;5.08;78.50
22662;BME280;11497;52.222;21.246;2024-02-04T02:35:31;99691.47;;;5.00;78.23
22662;BME280;11497;52.222;21.246;2024-02-04T02:38:13;99686.16;;;4.89;78.85
22662;BME280;11497;52.222;21.246;2024-02-04T02:40:49;99694.59;;;4.84;79.31
22662;BME280;11497;52.222;21.246;2024-02-04T02:43:19;99697.94;;;4.80;78.91
22662;BME280;11497;52.222;21.246;2024-02-04T02:45:48;99696.97;;;4.72;79.17
22662;BME280;11497;52.222;21.246;2024-02-04T02:48:16;99695.25;;;4.72;79.37
22662;BME280;11497;52.222;21.246;2024-02-04T02:50:45;99697.97;;;4.81;79.11
22662;BME280;11497;52.222;21.246;2024-02-04T02:53:12;99686.09;;;4.83;79.66
22662;BME280;11497;52.222;21.246;2024-02-04T02:55:40;99691.19;;;4.82;79.27
22662;BME280;11497;52.222;21.246;2024-02-04T02:58:08;99692.03;;;4.82;79.24
22662;BME280;11497;52.222;21.246;2024-02-04T03:00:37;99695.41;;;4.83;79.17
22662;BME280;11497;52.222;21.246;2024-02-04T03:03:05;99692.09;;;4.87;79.13
22662;BME280;11497;52.222;21.246;2024-02-04T03:05:33;99697.28;;;4.93;79.38
22662;BME280;11497;52.222;21.246;2024-02-04T03:08:01;99684.66;;;5.01;79.13
22662;BME280;11497;52.222;21.246;2024-02-04T03:10:29;99691.63;;;5.13;78.67
22662;BME280;11497;52.222;21.246;2024-02-04T03:12:57;99684.78;;;5.12;78.76
22662;BME280;11497;52.222;21.246;2024-02-04T03:15:25;99689.88;;;5.10;78.06
22662;BME280;11497;52.222;21.246;2024-02-04T03:17:53;99684.78;;;5.12;78.33
22662;BME280;11497;52.222;21.246;2024-02-04T03:20:21;99679.00;;;5.22;78.51
22662;BME280;11497;52.222;21.246;2024-02-04T03:22:48;99681.50;;;5.19;78.08
22662;BME280;11497;52.222;21.246;2024-02-04T03:25:18;99688.38;;;5.24;77.23
22662;BME280;11497;52.222;21.246;2024-02-04T03:27:45;99689.97;;;5.16;77.38
22662;BME280;11497;52.222;21.246;2024-02-04T03:30:14;99684.06;;;5.20;77.47
22662;BME280;11497;52.222;21.246;2024-02-04T03:32:42;99685.69;;;5.15;77.05
22662;BME280;11497;52.222;21.246;2024-02-04T03:35:10;99690.03;;;5.21;76.65
22662;BME280;11497;52.222;21.246;2024-02-04T03:37:37;99692.63;;;5.24;77.06
22662;BME280;11497;52.222;21.246;2024-02-04T03:40:06;99684.25;;;5.34;76.25
22662;BME280;11497;52.222;21.246;2024-02-04T03:42:34;99691.84;;;5.31;75.75
22662;BME280;11497;52.222;21.246;2024-02-04T03:45:03;99684.34;;;5.40;75.02
22662;BME280;11497;52.222;21.246;2024-02-04T03:47:31;99681.69;;;5.34;75.13
22662;BME280;11497;52.222;21.246;2024-02-04T03:49:59;99686.03;;;5.40;74.74
22662;BME280;11497;52.222;21.246;2024-02-04T03:52:27;99695.59;;;5.56;73.37
22662;BME280;11497;52.222;21.246;2024-02-04T03:54:55;99702.47;;;5.62;71.81
22662;BME280;11497;52.222;21.246;2024-02-04T03:57:23;99710.13;;;5.60;70.88
22662;BME280;11497;52.222;21.246;2024-02-04T03:59:51;99715.06;;;5.50;70.80
22662;BME280;11497;52.222;21.246;2024-02-04T04:02:19;99709.06;;;5.46;70.77
22662;BME280;11497;52.222;21.246;2024-02-04T04:04:47;99714.06;;;5.37;70.83
22662;BME280;11497;52.222;21.246;2024-02-04T04:07:16;99707.16;;;5.31;71.77
22662;BME280;11497;52.222;21.246;2024-02-04T04:09:44;99710.72;;;5.41;70.84
22662;BME280;11497;52.222;21.246;2024-02-04T04:12:12;99705.66;;;5.44;69.86
22662;BME280;11497;52.222;21.246;2024-02-04T04:14:40;99708.31;;;5.53;69.74
22662;BME280;11497;52.222;21.246;2024-02-04T04:17:08;99704.69;;;5.36;69.54
22662;BME280;11497;52.222;21.246;2024-02-04T04:19:36;99716.72;;;5.44;69.22
22662;BME280;11497;52.222;21.246;2024-02-04T04:22:04;99712.56;;;5.53;69.24
22662;BME280;11497;52.222;21.246;2024-02-04T04:24:32;99709.91;;;5.43;68.92
22662;BME280;11497;52.222;21.246;2024-02-04T04:27:00;99712.47;;;5.47;69.59
22662;BME280;11497;52.222;21.246;2024-02-04T04:29:28;99712.50;;;5.48;69.21
22662;BME280;11497;52.222;21.246;2024-02-04T04:31:55;99724.31;;;5.41;68.78
22662;BME280;11497;52.222;21.246;2024-02-04T04:34:23;99719.31;;;5.48;69.52
22662;BME280;11497;52.222;21.246;2024-02-04T04:36:51;99716.75;;;5.46;69.35
22662;BME280;11497;52.222;21.246;2024-02-04T04:39:19;99713.47;;;5.56;68.30
22662;BME280;11497;52.222;21.246;2024-02-04T04:41:47;99720.16;;;5.48;68.02
22662;BME280;11497;52.222;21.246;2024-02-04T04:44:15;99713.41;;;5.50;68.24
22662;BME280;11497;52.222;21.246;2024-02-04T04:46:42;99714.19;;;5.46;68.48
22662;BME280;11497;52.222;21.246;2024-02-04T04:49:10;99716.66;;;5.41;68.73
22662;BME280;11497;52.222;21.246;2024-02-04T04:51:38;99714.13;;;5.43;69.17
22662;BME280;11497;52.222;21.246;2024-02-04T04:54:06;99719.19;;;5.37;69.25
22662;BME280;11497;52.222;21.246;2024-02-04T04:56:39;99728.53;;;5.38;69.46
22662;BME280;11497;52.222;21.246;2024-02-04T04:59:10;99724.44;;;5.49;68.78
22662;BME280;11497;52.222;21.246;2024-02-04T05:01:44;99726.16;;;5.49;68.73
22662;BME280;11497;52.222;21.246;2024-02-04T05:04:12;99731.97;;;5.41;68.19
22662;BME280;11497;52.222;21.246;2024-02-04T05:06:40;99728.69;;;5.47;67.79
22662;BME280;11497;52.222;21.246;2024-02-04T05:09:08;99716.97;;;5.64;66.84
22662;BME280;11497;52.222;21.246;2024-02-04T05:11:36;99718.84;;;5.78;65.34
22662;BME280;11497;52.222;21.246;2024-02-04T05:14:04;99722.88;;;5.62;65.45
22662;BME280;11497;52.222;21.246;2024-02-04T05:16:32;99733.78;;;5.47;66.54
22662;BME280;11497;52.222;21.246;2024-02-04T05:19:00;99738.69;;;5.33;69.09
22662;BME280;11497;52.222;21.246;2024-02-04T05:21:28;99750.22;;;5.08;70.69
22662;BME280;11497;52.222;21.246;2024-02-04T05:23:56;99753.16;;;4.79;71.85
22662;BME280;11497;52.222;21.246;2024-02-04T05:26:23;99750.31;;;4.59;72.86
22662;BME280;11497;52.222;21.246;2024-02-04T05:28:51;99739.78;;;4.41;72.61
22662;BME280;11497;52.222;21.246;2024-02-04T05:31:19;99744.13;;;4.46;72.95
22662;BME280;11497;52.222;21.246;2024-02-04T05:33:47;99744.91;;;4.42;72.66
22662;BME280;11497;52.222;21.246;2024-02-04T05:36:15;99751.66;;;4.42;72.61
22662;BME280;11497;52.222;21.246;2024-02-04T05:38:45;99748.38;;;4.46;71.35
22662;BME280;11497;52.222;21.246;2024-02-04T05:41:12;99745.69;;;4.40;70.84
22662;BME280;11497;52.222;21.246;2024-02-04T05:43:40;99756.16;;;4.55;68.93
22662;BME280;11497;52.222;21.246;2024-02-04T05:46:08;99756.84;;;4.46;69.86
22662;BME280;11497;52.222;21.246;2024-02-04T05:48:36;99746.72;;;4.49;69.27
22662;BME280;11497;52.222;21.246;2024-02-04T05:51:04;99747.47;;;4.44;69.16
22662;BME280;11497;52.222;21.246;2024-02-04T05:53:32;99743.13;;;4.40;69.22
22662;BME280;11497;52.222;21.246;2024-02-04T05:56:00;99742.16;;;4.31;69.99
22662;BME280;11497;52.222;21.246;2024-02-04T05:58:28;99746.25;;;4.23;69.69
22662;BME280;11497;52.222;21.246;2024-02-04T06:00:55;99738.78;;;4.32;69.91
22662;BME280;11497;52.222;21.246;2024-02-04T06:03:23;99730.97;;;4.23;69.93
22662;BME280;11497;52.222;21.246;2024-02-04T06:05:51;99737.69;;;4.20;70.16
22662;BME280;11497;52.222;21.246;2024-02-04T06:08:19;99737.63;;;4.17;70.47
22662;BME280;11497;52.222;21.246;2024-02-04T06:10:46;99730.66;;;4.06;70.71
22662;BME280;11497;52.222;21.246;2024-02-04T06:13:15;99727.44;;;4.17;70.63
22662;BME280;11497;52.222;21.246;2024-02-04T06:15:43;99723.88;;;4.07;71.06
22662;BME280;11497;52.222;21.246;2024-02-04T06:18:10;99728.13;;;4.08;71.20
22662;BME280;11497;52.222;21.246;2024-02-04T06:20:38;99729.75;;;4.03;71.51
22662;BME280;11497;52.222;21.246;2024-02-04T06:23:06;99730.56;;;4.02;72.08
22662;BME280;11497;52.222;21.246;2024-02-04T06:25:34;99731.41;;;4.02;71.71
22662;BME280;11497;52.222;21.246;2024-02-04T06:28:02;99730.72;;;4.09;71.56
22662;BME280;11497;52.222;21.246;2024-02-04T06:30:30;99733.28;;;4.12;71.58
22662;BME280;11497;52.222;21.246;2024-02-04T06:32:58;99723.00;;;4.06;71.66
22662;BME280;11497;52.222;21.246;2024-02-04T06:35:26;99726.53;;;4.13;71.73
22662;BME280;11497;52.222;21.246;2024-02-04T06:37:54;99725.69;;;4.14;71.86
22662;BME280;11497;52.222;21.246;2024-02-04T06:40:23;99730.09;;;4.23;71.32
22662;BME280;11497;52.222;21.246;2024-02-04T06:42:51;99732.88;;;4.35;70.66
22662;BME280;11497;52.222;21.246;2024-02-04T06:45:19;99731.06;;;4.29;71.62
22662;BME280;11497;52.222;21.246;2024-02-04T06:47:47;99738.75;;;4.31;71.34
22662;BME280;11497;52.222;21.246;2024-02-04T06:50:14;99738.63;;;4.23;71.82
22662;BME280;11497;52.222;21.246;2024-02-04T06:52:44;99737.72;;;4.23;71.96
22662;BME280;11497;52.222;21.246;2024-02-04T06:55:13;99743.78;;;4.28;71.79
22662;BME280;11497;52.222;21.246;2024-02-04T06:57:41;99740.56;;;4.38;71.90
22662;BME280;11497;52.222;21.246;2024-02-04T07:00:09;99751.69;;;4.43;72.10
22662;BME280;11497;52.222;21.246;2024-02-04T07:02:38;99746.66;;;4.46;72.73
22662;BME280;11497;52.222;21.246;2024-02-04T07:05:05;99762.81;;;4.47;72.44
22662;BME280;11497;52.222;21.246;2024-02-04T07:07:34;99759.72;;;4.63;72.28
22662;BME280;11497;52.222;21.246;2024-02-04T07:10:02;99763.13;;;4.65;72.61
22662;BME280;11497;52.222;21.246;2024-02-04T07:12:30;99762.41;;;4.71;73.13
22662;BME280;11497;52.222;21.246;2024-02-04T07:14:58;99769.38;;;4.83;72.71
22662;BME280;11497;52.222;21.246;2024-02-04T07:17:26;99769.53;;;4.92;72.45
22662;BME280;11497;52.222;21.246;2024-02-04T07:19:54;99761.88;;;4.92;72.34
22662;BME280;11497;52.222;21.246;2024-02-04T07:22:22;99769.81;;;5.09;71.31
22662;BME280;11497;52.222;21.246;2024-02-04T07:24:50;99768.19;;;5.14;71.32
22662;BME280;11497;52.222;21.246;2024-02-04T07:27:17;99764.25;;;5.35;70.28
22662;BME280;11497;52.222;21.246;2024-02-04T07:29:45;99762.38;;;5.23;70.87
22662;BME280;11497;52.222;21.246;2024-02-04T07:32:15;99756.72;;;5.45;70.80
22662;BME280;11497;52.222;21.246;2024-02-04T07:34:43;99755.94;;;5.51;70.16
22662;BME280;11497;52.222;21.246;2024-02-04T07:37:11;99764.53;;;5.56;70.59
22662;BME280;11497;52.222;21.246;2024-02-04T07:39:39;99766.47;;;5.73;69.29
22662;BME280;11497;52.222;21.246;2024-02-04T07:42:07;99763.88;;;5.71;69.58
22662;BME280;11497;52.222;21.246;2024-02-04T07:44:34;99765.69;;;5.80;69.78
22662;BME280;11497;52.222;21.246;2024-02-04T07:47:02;99757.44;;;5.99;68.71
22662;BME280;11497;52.222;21.246;2024-02-04T07:49:30;99749.00;;;6.05;68.17
22662;BME280;11497;52.222;21.246;2024-02-04T07:51:58;99754.09;;;6.07;68.25
22662;BME280;11497;52.222;21.246;2024-02-04T07:54:26;99748.19;;;6.09;67.79
22662;BME280;11497;52.222;21.246;2024-02-04T07:56:54;99763.56;;;6.12;67.97
22662;BME280;11497;52.222;21.246;2024-02-04T07:59:21;99751.69;;;6.20;66.78
22662;BME280;11497;52.222;21.246;2024-02-04T08:01:49;99743.16;;;6.17;67.65
22662;BME280;11497;52.222;21.246;2024-02-04T08:04:17;99750.88;;;6.22;67.38
22662;BME280;11497;52.222;21.246;2024-02-04T08:06:46;99750.00;;;6.18;67.00
22662;BME280;11497;52.222;21.246;2024-02-04T08:09:14;99741.44;;;6.16;67.27
22662;BME280;11497;52.222;21.246;2024-02-04T08:11:42;99746.59;;;6.20;66.91
22662;BME280;11497;52.222;21.246;2024-02-04T08:14:09;99749.97;;;6.16;67.50
22662;BME280;11497;52.222;21.246;2024-02-04T08:16:37;99752.59;;;6.21;66.82
22662;BME280;11497;52.222;21.246;2024-02-04T08:19:05;99752.47;;;6.10;66.85
22662;BME280;11497;52.222;21.246;2024-02-04T08:21:34;99744.00;;;6.14;67.20
22662;BME280;11497;52.222;21.246;2024-02-04T08:24:02;99749.72;;;5.95;67.57
22662;BME280;11497;52.222;21.246;2024-02-04T08:26:30;99748.91;;;5.97;67.32
22662;BME280;11497;52.222;21.246;2024-02-04T08:28:59;99748.00;;;5.95;67.04
22662;BME280;11497;52.222;21.246;2024-02-04T08:31:29;99752.22;;;5.92;67.68
22662;BME280;11497;52.222;21.246;2024-02-04T08:33:58;99744.75;;;6.06;66.92
22662;BME280;11497;52.222;21.246;2024-02-04T08:36:27;99737.72;;;5.91;66.92
22662;BME280;11497;52.222;21.246;2024-02-04T08:38:55;99746.91;;;5.76;67.88
22662;BME280;11497;52.222;21.246;2024-02-04T08:41:23;99751.13;;;5.71;67.28
22662;BME280;11497;52.222;21.246;2024-02-04T08:43:50;99744.41;;;5.81;67.77
22662;BME280;11497;52.222;21.246;2024-02-04T08:46:18;99729.19;;;5.89;67.09
22662;BME280;11497;52.222;21.246;2024-02-04T08:48:46;99738.47;;;5.82;67.42
22662;BME280;11497;52.222;21.246;2024-02-04T08:51:15;99747.91;;;5.89;66.06
22662;BME280;11497;52.222;21.246;2024-02-04T08:53:44;99755.50;;;5.81;66.64
22662;BME280;11497;52.222;21.246;2024-02-04T08:56:11;99756.41;;;5.87;66.53
22662;BME280;11497;52.222;21.246;2024-02-04T08:58:39;99763.94;;;5.74;67.53
22662;BME280;11497;52.222;21.246;2024-02-04T09:01:07;99753.81;;;5.83;67.11
22662;BME280;11497;52.222;21.246;2024-02-04T09:03:35;99752.06;;;5.78;66.76
22662;BME280;11497;52.222;21.246;2024-02-04T09:06:04;99756.31;;;5.80;66.41
22662;BME280;11497;52.222;21.246;2024-02-04T09:08:33;99768.13;;;5.71;67.42
22662;BME280;11497;52.222;21.246;2024-02-04T09:11:01;99762.19;;;5.72;67.03
22662;BME280;11497;52.222;21.246;2024-02-04T09:13:29;99758.91;;;5.82;66.23
22662;BME280;11497;52.222;21.246;2024-02-04T09:15:57;99757.91;;;5.72;66.06
22662;BME280;11497;52.222;21.246;2024-02-04T09:18:26;99751.94;;;5.70;67.09
22662;BME280;11497;52.222;21.246;2024-02-04T09:20:54;99748.63;;;5.77;65.91
22662;BME280;11497;52.222;21.246;2024-02-04T09:23:23;99754.66;;;5.82;65.53
22662;BME280;11497;52.222;21.246;2024-02-04T09:25:52;99752.00;;;5.75;66.70
22662;BME280;11497;52.222;21.246;2024-02-04T09:28:21;99749.44;;;5.75;66.09
22662;BME280;11497;52.222;21.246;2024-02-04T09:30:48;99736.88;;;5.90;65.47
22662;BME280;11497;52.222;21.246;2024-02-04T09:33:17;99756.31;;;5.79;65.63
22662;BME280;11497;52.222;21.246;2024-02-04T09:35:45;99753.91;;;5.93;65.85
22662;BME280;11497;52.222;21.246;2024-02-04T09:38:14;99772.00;;;6.07;65.66
22662;BME280;11497;52.222;21.246;2024-02-04T09:40:43;99754.97;;;6.06;65.38
22662;BME280;11497;52.222;21.246;2024-02-04T09:43:11;99755.03;;;6.10;64.89
22662;BME280;11497;52.222;21.246;2024-02-04T09:45:41;99747.41;;;6.16;65.02
22662;BME280;11497;52.222;21.246;2024-02-04T09:48:09;99748.34;;;6.23;64.28
22662;BME280;11497;52.222;21.246;2024-02-04T09:50:37;99757.00;;;6.34;64.71
22662;BME280;11497;52.222;21.246;2024-02-04T09:53:08;99750.22;;;6.43;64.02
22662;BME280;11497;52.222;21.246;2024-02-04T09:55:39;99738.41;;;6.54;63.56
22662;BME280;11497;52.222;21.246;2024-02-04T09:58:07;99751.06;;;6.40;64.48
22662;BME280;11497;52.222;21.246;2024-02-04T10:00:39;99734.97;;;6.50;63.84
22662;BME280;11497;52.222;21.246;2024-02-04T10:03:08;99737.44;;;6.40;63.44
22662;BME280;11497;52.222;21.246;2024-02-04T10:05:36;99722.03;;;6.33;63.96
22662;BME280;11497;52.222;21.246;2024-02-04T10:08:04;99720.41;;;6.42;63.78
22662;BME280;11497;52.222;21.246;2024-02-04T10:10:33;99720.34;;;6.37;63.87
22662;BME280;11497;52.222;21.246;2024-02-04T10:13:08;99716.00;;;6.28;64.48
22662;BME280;11497;52.222;21.246;2024-02-04T10:15:36;99706.75;;;6.40;64.06
22662;BME280;11497;52.222;21.246;2024-02-04T10:18:05;99718.63;;;6.33;64.14
22662;BME280;11497;52.222;21.246;2024-02-04T10:20:34;99707.56;;;6.37;63.94
22662;BME280;11497;52.222;21.246;2024-02-04T10:23:02;99703.31;;;6.37;63.90
22662;BME280;11497;52.222;21.246;2024-02-04T10:25:29;99699.84;;;6.32;64.42
22662;BME280;11497;52.222;21.246;2024-02-04T10:27:58;99695.56;;;6.27;64.21
22662;BME280;11497;52.222;21.246;2024-02-04T10:30:25;99684.41;;;6.20;64.66
22662;BME280;11497;52.222;21.246;2024-02-04T10:32:54;99678.47;;;6.21;65.36
22662;BME280;11497;52.222;21.246;2024-02-04T10:35:22;99675.81;;;6.13;65.31
22662;BME280;11497;52.222;21.246;2024-02-04T10:37:52;99678.63;;;6.36;64.14
22662;BME280;11497;52.222;21.246;2024-02-04T10:40:20;99678.56;;;6.32;64.07
22662;BME280;11497;52.222;21.246;2024-02-04T10:42:49;99666.69;;;6.37;64.24
22662;BME280;11497;52.222;21.246;2024-02-04T10:45:22;99661.50;;;6.29;64.77
22662;BME280;11497;52.222;21.246;2024-02-04T10:47:56;99667.44;;;6.27;64.60
22662;BME280;11497;52.222;21.246;2024-02-04T10:50:29;99658.06;;;6.29;64.88
22662;BME280;11497;52.222;21.246;2024-02-04T10:52:59;99656.41;;;6.32;64.44
22662;BME280;11497;52.222;21.246;2024-02-04T10:55:31;99624.97;;;6.43;64.66
22662;BME280;11497;52.222;21.246;2024-02-04T10:58:01;99638.50;;;6.31;64.99
22662;BME280;11497;52.222;21.246;2024-02-04T11:00:29;99630.03;;;6.36;64.66
22662;BME280;11497;52.222;21.246;2024-02-04T11:02:57;99626.53;;;6.27;64.97
22662;BME280;11497;52.222;21.246;2024-02-04T11:05:27;99624.75;;;6.18;64.50
22662;BME280;11497;52.222;21.246;2024-02-04T11:07:57;99623.91;;;6.17;65.02
22662;BME280;11497;52.222;21.246;2024-02-04T11:10:28;99618.84;;;6.24;65.19
22662;BME280;11497;52.222;21.246;2024-02-04T11:13:00;99625.72;;;6.31;65.66
22662;BME280;11497;52.222;21.246;2024-02-04T11:15:35;99630.00;;;6.32;65.79
22662;BME280;11497;52.222;21.246;2024-02-04T11:18:24;99635.03;;;6.21;66.40
22662;BME280;11497;52.222;21.246;2024-02-04T11:21:18;99629.94;;;6.23;67.98
22662;BME280;11497;52.222;21.246;2024-02-04T11:27:16;99633.13;;;6.00;70.61
22662;BME280;11497;52.222;21.246;2024-02-04T11:29:45;99611.03;;;6.05;71.12
22662;BME280;11497;52.222;21.246;2024-02-04T11:32:13;99615.16;;;5.95;71.99
22662;BME280;11497;52.222;21.246;2024-02-04T11:34:41;99623.78;;;6.04;72.22
22662;BME280;11497;52.222;21.246;2024-02-04T11:37:18;99619.34;;;5.89;73.52
22662;BME280;11497;52.222;21.246;2024-02-04T11:39:56;99618.50;;;5.88;73.82
22662;BME280;11497;52.222;21.246;2024-02-04T11:42:25;99621.94;;;5.90;74.55
22662;BME280;11497;52.222;21.246;2024-02-04T11:47:37;99612.50;;;5.88;74.91
22662;BME280;11497;52.222;21.246;2024-02-04T11:50:07;99620.91;;;5.74;74.82
22662;BME280;11497;52.222;21.246;2024-02-04T11:52:38;99615.78;;;5.71;75.66
22662;BME280;11497;52.222;21.246;2024-02-04T11:55:14;99610.53;;;5.59;76.17
22662;BME280;11497;52.222;21.246;2024-02-04T11:57:43;99607.09;;;5.55;77.69
22662;BME280;11497;52.222;21.246;2024-02-04T12:00:11;99606.16;;;5.47;78.20
22662;BME280;11497;52.222;21.246;2024-02-04T12:02:40;99610.31;;;5.39;79.08
22662;BME280;11497;52.222;21.246;2024-02-04T12:05:08;99596.72;;;5.43;79.19
22662;BME280;11497;52.222;21.246;2024-02-04T12:07:36;99596.63;;;5.34;79.48
22662;BME280;11497;52.222;21.246;2024-02-04T12:10:10;99579.59;;;5.30;80.04
22662;BME280;11497;52.222;21.246;2024-02-04T12:12:38;99584.72;;;5.34;79.70
22662;BME280;11497;52.222;21.246;2024-02-04T12:15:07;99588.03;;;5.25;80.16
22662;BME280;11497;52.222;21.246;2024-02-04T12:17:36;99575.22;;;5.22;80.74
22662;BME280;11497;52.222;21.246;2024-02-04T12:20:04;99570.28;;;5.35;80.95
22662;BME280;11497;52.222;21.246;2024-02-04T12:22:33;99568.31;;;5.14;81.30
22662;BME280;11497;52.222;21.246;2024-02-04T12:25:02;99554.75;;;5.16;82.27
22662;BME280;11497;52.222;21.246;2024-02-04T12:27:31;99552.22;;;5.18;81.97
22662;BME280;11497;52.222;21.246;2024-02-04T12:30:00;99552.19;;;5.15;82.55
22662;BME280;11497;52.222;21.246;2024-02-04T12:32:29;99541.94;;;5.13;82.09
22662;BME280;11497;52.222;21.246;2024-02-04T12:34:57;99532.81;;;5.32;82.78
22662;BME280;11497;52.222;21.246;2024-02-04T12:37:25;99538.78;;;5.34;82.58
22662;BME280;11497;52.222;21.246;2024-02-04T12:39:54;99533.72;;;5.37;82.46
22662;BME280;11497;52.222;21.246;2024-02-04T12:42:30;99536.31;;;5.42;81.61
22662;BME280;11497;52.222;21.246;2024-02-04T12:44:58;99532.91;;;5.43;81.79
22662;BME280;11497;52.222;21.246;2024-02-04T12:47:26;99524.47;;;5.49;81.44
22662;BME280;11497;52.222;21.246;2024-02-04T12:49:59;99509.19;;;5.50;80.73
22662;BME280;11497;52.222;21.246;2024-02-04T12:52:28;99519.31;;;5.44;81.50
22662;BME280;11497;52.222;21.246;2024-02-04T12:54:56;99507.53;;;5.57;79.99
22662;BME280;11497;52.222;21.246;2024-02-04T12:57:24;99496.41;;;5.49;80.21
22662;BME280;11497;52.222;21.246;2024-02-04T12:59:52;99509.09;;;5.42;80.80
22662;BME280;11497;52.222;21.246;2024-02-04T13:02:23;99497.94;;;5.33;80.61
22662;BME280;11497;52.222;21.246;2024-02-04T13:04:51;99497.91;;;5.28;81.17
22662;BME280;11497;52.222;21.246;2024-02-04T13:07:21;99497.78;;;5.19;82.06
22662;BME280;11497;52.222;21.246;2024-02-04T13:09:58;99491.91;;;5.28;81.19
22662;BME280;11497;52.222;21.246;2024-02-04T13:12:28;99489.38;;;5.28;82.08
22662;BME280;11497;52.222;21.246;2024-02-04T13:14:57;99498.66;;;5.22;82.16
22662;BME280;11497;52.222;21.246;2024-02-04T13:17:25;99490.09;;;5.14;82.49
22662;BME280;11497;52.222;21.246;2024-02-04T13:19:52;99490.09;;;5.17;82.20